Hovedside
METAR-TAF:

METAR-TAF

Lufthavner :

Utti lufthavn

Utti, Finland

breddegrad: 60-54N, lengdegrad: 026-56E, høyde over havet: 100 m

Gjeldene værobservasjon

Denne rapporten ble laget for 26 minutter siden, klokken 12:20 UTC
Vind 11 kt fra Vest-nordvest, skiftende mellom Vest og Nord-nordvest
Temperatur 1°C
Luftfuktighet 59%
Trykk 990 hPa
Sikt 10 km eller mer
Brutte skyer i en høyde av 3800 ft

METAR: EFUT 241220Z 29011KT 260V330 9999 BKN038 01/M06 Q0990

Tid: 14:46 (12:46 UTC)

Varsel

Denne rapporten ble laget for 50 minutter siden, klokken 11:56 UTC
Varsel gyldig fra 24. klokken 12 UTC til 24. klokken 14 UTC
Vind 12 kt fra Vest
Sikt 10 km eller mer
Brutte skyer i en høyde av 3500 ft
Midlertidig
fra 24. klokken 12 UTC til 24. klokken 14 UTC
Vind 15 kt fra Vest med vindkast opp mot 25 kt

TAF: EFUT 241156Z 2412/2414 28012KT 9999 BKN035 TEMPO 2412/2414 28015G25KT

Værobservasjoner og værvarsel for over 4000 flyplasser (METAR- og TAF-rapporter).

Tilgjengelige stasjoner er representert av de røde og gule prikkene på kartet.

Hold musepekeren over prikken for å se navnet på stasjonen.

Klikk så for å se værobservasjoner og -varsler.

For å forandre kartet kan du klikke på den grønne knappen med svart kryss for å zoome inn, på den grønne knappen med strek for å zoome ut, eller på de grønne pilene for å se tilstøtende kart.


METAR-TAF: